createdAt,value
2019-05-28T00:01:55.835Z,94616.31
2019-05-28T00:04:26.708Z,94608.99
2019-05-28T00:06:55.855Z,94612.14
2019-05-28T00:09:25.611Z,94615.27
2019-05-28T00:11:55.060Z,94608.97
2019-05-28T00:14:24.305Z,94609.78
2019-05-28T00:16:53.074Z,94607.94
2019-05-28T00:19:21.964Z,94604.02
2019-05-28T00:21:50.862Z,94610.06
2019-05-28T00:24:21.077Z,94604.80
2019-05-28T00:26:49.864Z,94607.45
2019-05-28T00:29:18.652Z,94602.70
2019-05-28T00:31:47.543Z,94594.56
2019-05-28T00:34:17.971Z,94597.69
2019-05-28T00:36:46.865Z,94592.16
2019-05-28T00:39:15.753Z,94592.42
2019-05-28T00:41:44.644Z,94594.27
2019-05-28T00:44:13.536Z,94592.19
2019-05-28T00:46:42.324Z,94586.94
2019-05-28T00:49:12.445Z,94592.95
2019-05-28T00:51:43.134Z,94592.97
2019-05-28T00:54:12.685Z,94588.72
2019-05-28T00:56:42.005Z,94586.88
2019-05-28T00:59:11.389Z,94584.78
2019-05-28T01:01:40.280Z,94583.50
2019-05-28T01:04:09.797Z,94580.57
2019-05-28T01:06:38.676Z,94580.58
2019-05-28T01:09:08.759Z,94581.37
2019-05-28T01:11:37.687Z,94579.52
2019-05-28T01:14:06.682Z,94581.13
2019-05-28T01:16:35.572Z,94576.42
2019-05-28T01:19:04.567Z,94571.14
2019-05-28T01:21:34.071Z,94568.52
2019-05-28T01:24:02.964Z,94569.58
2019-05-28T01:26:31.754Z,94568.24
2019-05-28T01:29:00.561Z,94564.05
2019-05-28T01:31:29.431Z,94565.87
2019-05-28T01:33:58.461Z,94562.20
2019-05-28T01:36:27.318Z,94563.52
2019-05-28T01:38:56.208Z,94563.80
2019-05-28T01:41:25.099Z,94562.98
2019-05-28T01:43:53.992Z,94566.14
2019-05-28T01:46:23.188Z,94564.33
2019-05-28T01:48:52.081Z,94571.14
2019-05-28T01:51:20.932Z,94558.02
2019-05-28T01:53:49.862Z,94564.56
2019-05-28T01:56:18.650Z,94558.53
2019-05-28T01:58:47.442Z,94564.77
2019-05-28T02:01:16.330Z,94565.36
2019-05-28T02:03:45.222Z,94573.48
2019-05-28T02:06:14.011Z,94568.45
2019-05-28T02:08:42.902Z,94571.86
2019-05-28T02:11:12.099Z,94573.08
2019-05-28T02:13:40.999Z,94569.20
2019-05-28T02:16:11.713Z,94568.25
2019-05-28T02:18:40.653Z,94565.64
2019-05-28T02:21:09.816Z,94560.63
2019-05-28T02:23:38.706Z,94558.55
2019-05-28T02:26:09.236Z,94559.31
2019-05-28T02:28:38.101Z,94564.59
2019-05-28T02:31:07.307Z,94563.02
2019-05-28T02:33:36.218Z,94561.69
2019-05-28T02:36:05.112Z,94562.22
2019-05-28T02:38:34.005Z,94562.21
2019-05-28T02:41:02.891Z,94551.72
2019-05-28T02:43:31.885Z,94557.50
2019-05-28T02:46:00.664Z,94557.50
2019-05-28T02:48:29.464Z,94558.81
2019-05-28T02:51:00.391Z,94555.12
2019-05-28T02:53:30.988Z,94551.72
2019-05-28T02:56:00.951Z,94552.74
2019-05-28T02:58:34.788Z,94555.62
2019-05-28T03:01:05.370Z,94550.13
2019-05-28T03:03:34.492Z,94546.17
2019-05-28T03:06:06.445Z,94549.07
2019-05-28T03:08:35.543Z,94545.66
2019-05-28T03:11:04.913Z,94548.03
2019-05-28T03:13:34.060Z,94543.02
2019-05-28T03:16:04.726Z,94548.55
2019-05-28T03:18:36.418Z,94543.81
2019-05-28T03:21:06.598Z,94549.88
2019-05-28T03:23:38.647Z,94557.72
2019-05-28T03:26:08.654Z,94559.05
2019-05-28T03:28:37.614Z,94549.59
2019-05-28T03:31:07.630Z,94547.75
2019-05-28T03:33:36.539Z,94550.63
2019-05-28T03:36:06.862Z,94552.23
2019-05-28T03:38:37.342Z,94552.59
2019-05-28T03:41:06.181Z,94558.28
2019-05-28T03:43:35.076Z,94551.67
2019-05-28T03:46:04.106Z,94553.02
2019-05-28T03:48:32.959Z,94561.55
2019-05-28T03:51:01.850Z,94556.55
2019-05-28T03:53:30.739Z,94558.77
2019-05-28T03:55:59.532Z,94561.02
2019-05-28T03:58:28.319Z,94565.41
2019-05-28T04:00:57.209Z,94565.14
2019-05-28T04:03:26.102Z,94573.08
2019-05-28T04:05:54.993Z,94566.27
2019-05-28T04:08:23.884Z,94565.52
2019-05-28T04:10:52.775Z,94568.48
2019-05-28T04:13:21.666Z,94562.19
2019-05-28T04:15:50.564Z,94568.80
2019-05-28T04:18:19.449Z,94563.11
2019-05-28T04:20:48.347Z,94562.78
2019-05-28T04:23:17.690Z,94570.38
2019-05-28T04:25:47.719Z,94568.53
2019-05-28T04:28:16.555Z,94567.03
2019-05-28T04:30:45.562Z,94568.27
2019-05-28T04:33:14.445Z,94567.77
2019-05-28T04:35:43.325Z,94568.89
2019-05-28T04:38:12.523Z,94568.34
2019-05-28T04:40:41.416Z,94563.63
2019-05-28T04:43:10.613Z,94563.09
2019-05-28T04:45:39.503Z,94567.55
2019-05-28T04:48:08.466Z,94565.31
2019-05-28T04:50:37.388Z,94570.91
2019-05-28T04:53:06.810Z,94575.69
2019-05-28T04:55:35.690Z,94583.94
2019-05-28T04:58:04.573Z,94582.17
2019-05-28T05:00:33.465Z,94587.08
2019-05-28T05:03:02.366Z,94583.77
2019-05-28T05:05:31.275Z,94587.31
2019-05-28T05:08:00.141Z,94592.36
2019-05-28T05:10:29.030Z,94595.30
2019-05-28T05:12:57.920Z,94599.69
2019-05-28T05:15:26.812Z,94600.70
2019-05-28T05:17:55.703Z,94597.53
2019-05-28T05:20:24.612Z,94601.58
2019-05-28T05:22:53.589Z,94599.63
2019-05-28T05:25:22.584Z,94598.75
2019-05-28T05:27:51.505Z,94598.31
2019-05-28T05:30:20.909Z,94605.04
2019-05-28T05:32:49.768Z,94607.81
2019-05-28T05:35:18.866Z,94604.06
2019-05-28T05:37:47.756Z,94612.30
2019-05-28T05:40:17.340Z,94613.05
2019-05-28T05:42:46.355Z,94620.41
2019-05-28T05:45:15.635Z,94621.81
2019-05-28T05:47:45.777Z,94625.80
2019-05-28T05:50:16.226Z,94624.95
2019-05-28T05:52:45.108Z,94637.59
2019-05-28T05:55:15.585Z,94639.41
2019-05-28T05:57:44.413Z,94636.61
2019-05-28T06:00:14.961Z,94635.27
2019-05-28T06:02:43.839Z,94638.00
2019-05-28T06:05:13.853Z,94648.57
2019-05-28T06:07:42.756Z,94642.52
2019-05-28T06:10:12.046Z,94639.30
2019-05-28T06:12:40.940Z,94644.75
2019-05-28T06:15:10.114Z,94646.06
2019-05-28T06:17:38.922Z,94652.85
2019-05-28T06:20:09.331Z,94653.13
2019-05-28T06:22:38.241Z,94654.03
2019-05-28T06:25:08.126Z,94661.83
2019-05-28T06:27:37.049Z,94670.89
2019-05-28T06:30:08.143Z,94678.88
2019-05-28T06:32:38.186Z,94679.89
2019-05-28T06:35:07.822Z,94678.58
2019-05-28T06:37:36.707Z,94682.52
2019-05-28T06:40:07.904Z,94694.58
2019-05-28T06:42:39.614Z,94695.80
2019-05-28T06:45:09.028Z,94698.16
2019-05-28T06:47:38.007Z,94710.56
2019-05-28T06:50:12.022Z,94699.16
2019-05-28T06:52:41.628Z,94711.84
2019-05-28T06:55:11.546Z,94714.23
2019-05-28T06:57:40.433Z,94716.52
2019-05-28T07:00:10.632Z,94722.39
2019-05-28T07:02:39.656Z,94727.13
2019-05-28T07:05:08.952Z,94723.88
2019-05-28T07:07:38.040Z,94730.05
2019-05-28T07:10:09.679Z,94730.05
2019-05-28T07:12:38.696Z,94730.41
2019-05-28T07:15:08.180Z,94735.20
2019-05-28T07:17:36.993Z,94741.55
2019-05-28T07:20:07.638Z,94743.67
2019-05-28T07:22:36.516Z,94749.43
2019-05-28T07:25:07.249Z,94747.61
2019-05-28T07:27:36.242Z,94741.44
2019-05-28T07:30:09.480Z,94747.70
2019-05-28T07:32:38.333Z,94753.27
2019-05-28T07:35:07.501Z,94756.31
2019-05-28T07:37:36.312Z,94757.00
2019-05-28T07:40:09.540Z,94759.48
2019-05-28T07:42:38.403Z,94775.96
2019-05-28T07:45:09.005Z,94765.72
2019-05-28T07:47:37.828Z,94773.92
2019-05-28T07:50:09.870Z,94779.66
2019-05-28T07:52:38.775Z,94776.62
2019-05-28T07:55:08.185Z,94781.20
2019-05-28T07:57:37.067Z,94782.31
2019-05-28T08:00:07.750Z,94782.42
2019-05-28T08:02:36.795Z,94785.02
2019-05-28T08:05:09.320Z,94792.42
2019-05-28T08:07:38.265Z,94790.29
2019-05-28T08:10:08.620Z,94785.55
2019-05-28T08:12:37.638Z,94799.03
2019-05-28T08:15:07.808Z,94798.31
2019-05-28T08:17:36.775Z,94792.25
2019-05-28T08:20:06.759Z,94799.88
2019-05-28T08:22:42.137Z,94799.88
2019-05-28T08:25:23.584Z,94796.52
2019-05-28T08:27:37.587Z,94797.23
2019-05-28T08:30:08.136Z,94803.70
2019-05-28T08:32:37.010Z,94794.73
2019-05-28T08:35:07.378Z,94794.73
2019-05-28T08:37:36.326Z,94791.64
2019-05-28T08:40:07.064Z,94787.27
2019-05-28T08:42:36.054Z,94788.27
2019-05-28T08:45:06.542Z,94785.47
2019-05-28T08:47:35.519Z,94781.50
2019-05-28T08:50:06.101Z,94779.42
2019-05-28T08:52:35.003Z,94780.58
2019-05-28T08:55:04.783Z,94780.15
2019-05-28T08:57:37.240Z,94776.78
2019-05-28T09:00:11.510Z,94779.45
2019-05-28T09:02:40.392Z,94771.63
2019-05-28T09:05:25.101Z,94774.63
2019-05-28T09:07:40.941Z,94775.65
2019-05-28T09:10:10.407Z,94774.72
2019-05-28T09:12:39.343Z,94772.58
2019-05-28T09:15:08.923Z,94779.86
2019-05-28T09:17:39.285Z,94777.24
2019-05-28T09:20:08.881Z,94782.39
2019-05-28T09:22:37.771Z,94783.70
2019-05-28T09:25:07.169Z,94778.81
2019-05-28T09:27:35.964Z,94783.33
2019-05-28T09:30:07.720Z,94788.69
2019-05-28T09:32:36.641Z,94789.16
2019-05-28T09:35:09.572Z,94793.16
2019-05-28T09:37:38.507Z,94800.41
2019-05-28T09:40:08.181Z,94800.03
2019-05-28T09:42:37.197Z,94793.34
2019-05-28T09:45:21.743Z,94797.89
2019-05-28T09:47:38.049Z,94803.75
2019-05-28T09:50:26.931Z,94803.33
2019-05-28T09:52:52.946Z,94813.84
2019-05-28T09:55:10.063Z,94820.13
2019-05-28T09:57:47.314Z,94830.03
2019-05-28T10:00:17.350Z,94841.09
2019-05-28T10:02:46.349Z,94866.33
2019-05-28T10:05:15.647Z,94866.66
2019-05-28T10:07:44.536Z,94874.80
2019-05-28T10:10:13.633Z,94868.45
2019-05-28T10:12:42.637Z,94868.45
2019-05-28T10:15:12.627Z,94870.89
2019-05-28T10:17:41.433Z,94866.84
2019-05-28T10:20:12.224Z,94877.22
2019-05-28T10:22:41.161Z,94885.88
2019-05-28T10:25:11.181Z,94892.98
2019-05-28T10:27:58.497Z,94887.97
2019-05-28T10:30:14.608Z,94892.78
2019-05-28T10:32:43.590Z,94893.80
2019-05-28T10:35:13.582Z,94906.13
2019-05-28T10:37:42.404Z,94906.96
2019-05-28T10:40:12.727Z,94912.30
2019-05-28T10:42:43.519Z,94924.57
2019-05-28T10:45:14.318Z,94923.20
2019-05-28T10:47:43.189Z,94933.89
2019-05-28T10:50:12.792Z,94941.24
2019-05-28T10:52:41.681Z,94951.14
2019-05-28T10:55:15.675Z,94953.45
2019-05-28T10:57:42.777Z,94955.37
2019-05-28T11:00:12.853Z,94950.50
2019-05-28T11:02:41.764Z,94956.42
2019-05-28T11:05:13.262Z,94959.10
2019-05-28T11:07:42.093Z,94956.27
2019-05-28T11:10:23.779Z,94962.93
2019-05-28T11:12:43.765Z,94961.84
2019-05-28T11:15:13.801Z,94964.37
2019-05-28T11:17:42.674Z,94963.17
2019-05-28T11:20:14.444Z,94967.81
2019-05-28T11:22:43.324Z,94965.29
2019-05-28T11:25:13.241Z,94969.13
2019-05-28T11:27:42.130Z,94963.97
2019-05-28T11:30:13.776Z,94967.08
2019-05-28T11:32:44.215Z,94963.99
2019-05-28T11:35:14.548Z,94974.70
2019-05-28T11:37:43.433Z,94967.88
2019-05-28T11:40:15.271Z,94964.34
2019-05-28T11:42:45.308Z,94963.64
2019-05-28T11:45:17.140Z,94964.08
2019-05-28T11:47:50.184Z,94961.64
2019-05-28T11:50:19.281Z,94963.47
2019-05-28T11:52:48.254Z,94970.65
2019-05-28T11:55:17.836Z,94968.99
2019-05-28T11:57:49.408Z,94960.53
2019-05-28T12:00:18.791Z,94948.36
2019-05-28T12:02:47.807Z,94954.38
2019-05-28T12:05:17.013Z,94948.22
2019-05-28T12:07:45.894Z,94958.06
2019-05-28T12:10:16.687Z,94964.30
2019-05-28T12:12:45.621Z,94962.17
2019-05-28T12:15:16.603Z,94969.06
2019-05-28T12:17:45.830Z,94967.42
2019-05-28T12:20:18.016Z,94968.86
2019-05-28T12:22:47.029Z,94967.86
2019-05-28T12:25:16.409Z,94971.03
2019-05-28T12:27:45.216Z,94967.48
2019-05-28T12:30:18.515Z,94970.37
2019-05-28T12:32:47.093Z,94967.30
2019-05-28T12:35:28.369Z,94964.42
2019-05-28T12:37:50.458Z,94974.58
2019-05-28T12:40:19.273Z,94968.88
2019-05-28T12:42:48.192Z,94970.25
2019-05-28T12:45:17.679Z,94968.03
2019-05-28T12:48:06.995Z,94965.13
2019-05-28T12:50:20.310Z,94962.84
2019-05-28T12:52:48.162Z,94964.29
2019-05-28T12:55:17.740Z,94959.61
2019-05-28T12:57:46.656Z,94955.77
2019-05-28T13:00:16.048Z,94963.42
2019-05-28T13:02:44.958Z,94965.66
2019-05-28T13:05:19.018Z,94966.67
2019-05-28T13:08:06.372Z,94967.62
2019-05-28T13:10:18.805Z,94964.52
2019-05-28T13:12:47.688Z,94966.50
2019-05-28T13:15:18.228Z,94961.42
2019-05-28T13:17:47.110Z,94961.09
2019-05-28T13:20:16.850Z,94968.06
2019-05-28T13:22:46.631Z,94961.48
2019-05-28T13:25:15.623Z,94967.92
2019-05-28T13:27:44.511Z,94970.48
2019-05-28T13:30:14.870Z,94967.48
2019-05-28T13:32:44.752Z,94966.64
2019-05-28T13:35:16.115Z,94977.23
2019-05-28T13:37:45.002Z,94979.83
2019-05-28T13:40:16.019Z,94976.05
2019-05-28T13:42:44.823Z,94974.80
2019-05-28T13:45:14.784Z,94970.25
2019-05-28T13:47:43.629Z,94976.69
2019-05-28T13:50:14.776Z,94981.20
2019-05-28T13:52:43.955Z,94986.93
2019-05-28T13:55:13.684Z,94983.69
2019-05-28T13:57:42.882Z,94985.25
2019-05-28T14:00:17.674Z,94984.73
2019-05-28T14:02:46.989Z,94987.14
2019-05-28T14:05:16.898Z,94983.33
2019-05-28T14:07:45.919Z,94979.81
2019-05-28T14:10:17.976Z,94981.89
2019-05-28T14:12:48.312Z,94982.32
2019-05-28T14:15:17.499Z,94976.09
2019-05-28T14:17:46.312Z,94965.55
2019-05-28T14:20:15.623Z,94963.22
2019-05-28T14:22:44.507Z,94963.17
2019-05-28T14:25:15.150Z,94957.92
2019-05-28T14:27:44.126Z,94965.39
2019-05-28T14:30:18.337Z,94967.62
2019-05-28T14:32:47.238Z,94959.10
2019-05-28T14:35:16.325Z,94963.86
2019-05-28T14:37:45.213Z,94959.02
2019-05-28T14:40:15.548Z,94958.78
2019-05-28T14:42:44.633Z,94963.75
2019-05-28T14:45:14.406Z,94952.44
2019-05-28T14:47:44.776Z,94950.92
2019-05-28T14:50:22.093Z,94959.12
2019-05-28T14:52:52.389Z,94960.72
2019-05-28T14:55:21.502Z,94954.69
2019-05-28T14:57:50.471Z,94949.89
2019-05-28T15:00:19.957Z,94947.48
2019-05-28T15:02:49.585Z,94950.45
2019-05-28T15:05:18.564Z,94951.29
2019-05-28T15:07:47.371Z,94948.28
2019-05-28T15:10:19.360Z,94951.75
2019-05-28T15:12:48.223Z,94947.90
2019-05-28T15:15:34.581Z,94952.73
2019-05-28T15:17:48.259Z,94956.94
2019-05-28T15:20:17.847Z,94958.47
2019-05-28T15:22:46.758Z,94962.48
2019-05-28T15:25:16.878Z,94957.66
2019-05-28T15:27:45.807Z,94956.84
2019-05-28T15:30:15.655Z,94951.95
2019-05-28T15:32:44.685Z,94961.95
2019-05-28T15:35:14.268Z,94956.55
2019-05-28T15:37:43.129Z,94966.28
2019-05-28T15:40:13.295Z,94958.52
2019-05-28T15:42:42.188Z,94962.33
2019-05-28T15:45:12.802Z,94965.83
2019-05-28T15:47:44.787Z,94962.64
2019-05-28T15:50:13.548Z,94962.84
2019-05-28T15:52:42.462Z,94966.08
2019-05-28T15:55:14.165Z,94974.61
2019-05-28T15:57:43.083Z,94976.34
2019-05-28T16:00:21.377Z,94974.62
2019-05-28T16:02:50.318Z,94976.86
2019-05-28T16:05:19.308Z,94980.16
2019-05-28T16:07:48.099Z,94985.77
2019-05-28T16:10:17.382Z,94987.42
2019-05-28T16:12:46.604Z,94992.11
2019-05-28T16:15:16.797Z,94989.43
2019-05-28T16:17:45.609Z,95002.59
2019-05-28T16:20:15.495Z,95004.38
2019-05-28T16:22:44.456Z,95009.93
2019-05-28T16:25:15.384Z,95011.99
2019-05-28T16:27:45.855Z,95024.55
2019-05-28T16:30:15.339Z,95031.69
2019-05-28T16:32:44.285Z,95038.05
2019-05-28T16:35:13.683Z,95043.05
2019-05-28T16:37:42.573Z,95056.13
2019-05-28T16:40:15.696Z,95056.13
2019-05-28T16:42:42.921Z,95068.40
2019-05-28T16:45:13.715Z,95069.66
2019-05-28T16:47:42.546Z,95067.08
2019-05-28T16:50:13.567Z,95053.08
2019-05-28T16:52:42.680Z,95049.08
2019-05-28T16:55:12.902Z,95029.52
2019-05-28T16:57:41.792Z,95010.19
2019-05-28T17:00:11.919Z,95001.70
2019-05-28T17:02:41.830Z,95009.69
2019-05-28T17:05:11.265Z,95025.88
2019-05-28T17:07:40.123Z,95026.05
2019-05-28T17:10:10.142Z,95034.55
2019-05-28T17:12:39.086Z,95031.48
2019-05-28T17:15:09.870Z,95024.17
2019-05-28T17:17:39.069Z,95028.30
2019-05-28T17:20:09.252Z,95027.14
2019-05-28T17:22:38.592Z,95036.80
2019-05-28T17:25:11.691Z,95044.63
2019-05-28T17:27:40.470Z,95052.10
2019-05-28T17:30:23.313Z,95064.89
2019-05-28T17:32:40.416Z,95067.82
2019-05-28T17:35:10.249Z,95068.94
2019-05-28T17:37:39.213Z,95062.42
2019-05-28T17:40:08.625Z,95061.73
2019-05-28T17:42:37.502Z,95061.77
2019-05-28T17:45:07.082Z,95062.08
2019-05-28T17:47:43.127Z,95060.44
2019-05-28T17:50:08.189Z,95064.09
2019-05-28T17:52:37.350Z,95061.42
2019-05-28T17:55:07.327Z,95064.13
2019-05-28T17:57:36.384Z,95075.88
2019-05-28T18:00:06.766Z,95068.33
2019-05-28T18:02:35.717Z,95082.05
2019-05-28T18:05:05.685Z,95083.50
2019-05-28T18:07:34.606Z,95083.50
2019-05-28T18:10:08.622Z,95083.22
2019-05-28T18:12:37.509Z,95080.27
2019-05-28T18:15:10.243Z,95083.81
2019-05-28T18:17:39.088Z,95082.33
2019-05-28T18:20:10.272Z,95080.88
2019-05-28T18:22:41.746Z,95086.31
2019-05-28T18:25:12.264Z,95092.48
2019-05-28T18:27:41.099Z,95096.83
2019-05-28T18:30:11.326Z,95108.34
2019-05-28T18:32:40.219Z,95103.23
2019-05-28T18:35:10.799Z,95106.44
2019-05-28T18:37:41.628Z,95109.39
2019-05-28T18:40:12.417Z,95109.60
2019-05-28T18:42:46.825Z,95108.25
2019-05-28T18:45:16.108Z,95120.84
2019-05-28T18:47:45.235Z,95117.99
2019-05-28T18:50:14.676Z,95112.48
2019-05-28T18:52:45.206Z,95113.88
2019-05-28T18:55:15.276Z,95119.06
2019-05-28T18:57:50.373Z,95123.67
2019-05-28T19:00:15.700Z,95126.36
2019-05-28T19:02:44.627Z,95126.61
2019-05-28T19:05:16.049Z,95122.09
2019-05-28T19:07:44.878Z,95125.69
2019-05-28T19:10:15.418Z,95135.58
2019-05-28T19:12:44.291Z,95126.45
2019-05-28T19:15:14.406Z,95128.16
2019-05-28T19:17:43.300Z,95122.83
2019-05-28T19:20:15.280Z,95122.63
2019-05-28T19:22:44.161Z,95135.06
2019-05-28T19:25:14.472Z,95130.61
2019-05-28T19:27:43.415Z,95133.91
2019-05-28T19:30:14.411Z,95139.02
2019-05-28T19:32:44.115Z,95136.97
2019-05-28T19:35:13.014Z,95136.45
2019-05-28T19:37:43.607Z,95140.61
2019-05-28T19:40:14.607Z,95141.52
2019-05-28T19:42:43.467Z,95141.58
2019-05-28T19:45:13.285Z,95143.42
2019-05-28T19:47:43.302Z,95143.80
2019-05-28T19:50:13.449Z,95148.00
2019-05-28T19:52:42.305Z,95148.61
2019-05-28T19:55:11.632Z,95155.11
2019-05-28T19:57:40.506Z,95153.10
2019-05-28T20:00:10.343Z,95160.64
2019-05-28T20:02:39.316Z,95160.26
2019-05-28T20:05:09.667Z,95165.27
2019-05-28T20:07:38.527Z,95167.86
2019-05-28T20:10:08.507Z,95171.84
2019-05-28T20:12:37.435Z,95174.01
2019-05-28T20:15:08.749Z,95173.25
2019-05-28T20:17:37.736Z,95175.58
2019-05-28T20:20:08.216Z,95176.95
2019-05-28T20:22:37.111Z,95177.45
2019-05-28T20:25:07.280Z,95172.52
2019-05-28T20:27:37.743Z,95177.75
2019-05-28T20:30:07.865Z,95175.61
2019-05-28T20:32:36.773Z,95180.42
2019-05-28T20:35:07.777Z,95183.77
2019-05-28T20:37:36.688Z,95188.38
2019-05-28T20:40:08.046Z,95185.24
2019-05-28T20:42:37.476Z,95184.06
2019-05-28T20:45:11.860Z,95195.69
2019-05-28T20:47:40.445Z,95196.61
2019-05-28T20:50:11.795Z,95216.04
2019-05-28T20:52:40.993Z,95223.09
2019-05-28T20:55:10.807Z,95213.88
2019-05-28T20:57:39.712Z,95225.05
2019-05-28T21:00:13.535Z,95222.73
2019-05-28T21:02:42.412Z,95230.41
2019-05-28T21:05:12.909Z,95224.13
2019-05-28T21:07:41.812Z,95214.56
2019-05-28T21:10:11.730Z,95211.81
2019-05-28T21:12:44.508Z,95214.06
2019-05-28T21:15:15.860Z,95208.45
2019-05-28T21:17:44.139Z,95204.76
2019-05-28T21:20:13.751Z,95200.20
2019-05-28T21:22:42.637Z,95201.53
2019-05-28T21:25:12.450Z,95205.21
2019-05-28T21:27:41.347Z,95207.44
2019-05-28T21:30:11.256Z,95209.92
2019-05-28T21:32:40.149Z,95210.12
2019-05-28T21:35:10.373Z,95215.19
2019-05-28T21:37:39.259Z,95214.39
2019-05-28T21:40:10.174Z,95209.83
2019-05-28T21:42:39.067Z,95211.12
2019-05-28T21:45:09.079Z,95213.89
2019-05-28T21:47:37.897Z,95217.00
2019-05-28T21:50:08.183Z,95215.94
2019-05-28T21:52:37.011Z,95221.87
2019-05-28T21:55:10.421Z,95225.58
2019-05-28T21:57:39.297Z,95218.95
2019-05-28T22:00:30.822Z,95213.14
2019-05-28T22:03:00.692Z,95211.67
2019-05-28T22:05:29.626Z,95214.45
2019-05-28T22:07:59.432Z,95214.31
2019-05-28T22:10:29.253Z,95215.48
2019-05-28T22:13:12.322Z,95218.23
2019-05-28T22:15:28.884Z,95221.41
2019-05-28T22:17:58.020Z,95223.67
2019-05-28T22:20:26.970Z,95226.50
2019-05-28T22:22:56.310Z,95225.78
2019-05-28T22:25:25.365Z,95230.56
2019-05-28T22:27:54.160Z,95236.59
2019-05-28T22:30:23.642Z,95235.20
2019-05-28T22:32:52.557Z,95241.00
2019-05-28T22:35:21.548Z,95247.06
2019-05-28T22:37:50.437Z,95254.25
2019-05-28T22:40:19.535Z,95250.56
2019-05-28T22:42:48.425Z,95252.14
2019-05-28T22:45:17.408Z,95253.97
2019-05-28T22:47:46.209Z,95246.20
2019-05-28T22:50:22.888Z,95246.42
2019-05-28T22:52:47.473Z,95257.00
2019-05-28T22:55:16.647Z,95256.00
2019-05-28T22:57:45.460Z,95250.84
2019-05-28T23:00:14.775Z,95258.98
2019-05-28T23:02:43.648Z,95254.47
2019-05-28T23:05:12.948Z,95253.84
2019-05-28T23:07:41.838Z,95246.64
2019-05-28T23:10:11.192Z,95252.87
2019-05-28T23:12:40.134Z,95251.01
2019-05-28T23:15:10.617Z,95252.16
2019-05-28T23:17:39.457Z,95254.55
2019-05-28T23:20:10.989Z,95253.47
2019-05-28T23:22:40.307Z,95251.58
2019-05-28T23:25:11.715Z,95247.95
2019-05-28T23:27:40.644Z,95254.47
2019-05-28T23:30:23.321Z,95259.23
2019-05-28T23:32:41.196Z,95252.59
2019-05-28T23:35:12.721Z,95251.34
2019-05-28T23:37:41.645Z,95255.86
2019-05-28T23:40:11.762Z,95259.97
2019-05-28T23:42:40.561Z,95260.27
2019-05-28T23:45:11.762Z,95260.28
2019-05-28T23:47:40.793Z,95263.61
2019-05-28T23:50:14.214Z,95272.45
2019-05-28T23:52:40.530Z,95264.19
2019-05-28T23:55:10.015Z,95265.98
2019-05-28T23:57:38.817Z,95265.50
